createdAt,value
2022-08-22T00:00:15.806Z,93.83
2022-08-22T00:02:49.935Z,93.70
2022-08-22T00:02:57.730Z,95.36
2022-08-22T00:03:01.248Z,93.46
2022-08-22T00:03:11.649Z,94.95
2022-08-22T00:03:25.861Z,93.94
2022-08-22T00:06:10.582Z,93.99
2022-08-22T00:09:00.242Z,94.12
2022-08-22T00:11:54.935Z,94.03
2022-08-22T00:14:40.577Z,93.89
2022-08-22T00:17:44.223Z,93.81
2022-08-22T00:20:30.601Z,93.91
2022-08-22T00:23:10.244Z,94.06
2022-08-22T00:26:03.896Z,94.31
2022-08-22T00:28:38.872Z,94.58
2022-08-22T00:31:17.793Z,94.64
2022-08-22T00:33:53.235Z,94.68
2022-08-22T00:36:43.831Z,94.85
2022-08-22T00:39:27.221Z,94.67
2022-08-22T00:42:29.538Z,94.71
2022-08-22T00:45:11.597Z,94.72
2022-08-22T00:47:58.383Z,94.84
2022-08-22T00:50:38.593Z,94.90
2022-08-22T00:53:47.631Z,95.19
2022-08-22T00:56:28.264Z,95.38
2022-08-22T00:59:23.130Z,95.49
2022-08-22T01:01:52.469Z,95.76
2022-08-22T01:04:29.072Z,95.80
2022-08-22T01:07:03.480Z,96.08
2022-08-22T01:09:47.218Z,96.25
2022-08-22T01:12:42.756Z,96.33
2022-08-22T01:15:15.714Z,96.26
2022-08-22T01:18:05.077Z,96.72
2022-08-22T01:20:54.792Z,96.89
2022-08-22T01:24:09.115Z,96.96
2022-08-22T01:26:56.972Z,97.34
2022-08-22T01:29:56.162Z,97.52
2022-08-22T01:33:05.693Z,97.84
2022-08-22T01:35:42.980Z,98.06
2022-08-22T01:38:34.603Z,98.18
2022-08-22T01:41:35.428Z,97.96
2022-08-22T01:44:23.774Z,97.97
2022-08-22T01:46:58.294Z,97.54
2022-08-22T01:49:35.595Z,97.41
2022-08-22T01:52:34.325Z,97.41
2022-08-22T01:55:11.585Z,97.30
2022-08-22T01:57:50.416Z,96.80
2022-08-22T02:00:34.551Z,96.32
2022-08-22T02:03:26.677Z,96.14
2022-08-22T02:06:05.078Z,96.55
2022-08-22T02:08:45.135Z,96.41
2022-08-22T02:11:35.230Z,96.51
2022-08-22T02:14:32.943Z,96.52
2022-08-22T02:17:32.709Z,96.69
2022-08-22T02:20:25.656Z,96.90
2022-08-22T02:23:27.825Z,96.98
2022-08-22T02:25:59.403Z,97.28
2022-08-22T02:28:56.968Z,97.51
2022-08-22T02:31:38.118Z,97.34
2022-08-22T02:34:20.732Z,97.23
2022-08-22T02:36:58.097Z,97.00
2022-08-22T02:39:34.914Z,97.00
2022-08-22T02:42:17.748Z,96.77
2022-08-22T02:45:05.612Z,96.72
2022-08-22T02:47:47.032Z,97.09
2022-08-22T02:50:38.146Z,97.25
2022-08-22T02:53:17.726Z,97.49
2022-08-22T02:56:40.015Z,97.92
2022-08-22T02:59:32.523Z,98.42
2022-08-22T03:02:27.825Z,98.96
2022-08-22T03:05:01.089Z,99.14
2022-08-22T03:07:43.806Z,99.43
2022-08-22T03:10:23.466Z,99.79
2022-08-22T03:13:09.985Z,99.93
2022-08-22T03:15:58.161Z,100.00
2022-08-22T03:18:41.593Z,100.00
2022-08-22T03:21:30.967Z,100.00
2022-08-22T03:24:09.864Z,100.00
2022-08-22T03:27:32.724Z,100.00
2022-08-22T03:30:08.027Z,100.00
2022-08-22T03:32:54.758Z,100.00
2022-08-22T03:35:52.978Z,100.00
2022-08-22T03:38:26.552Z,100.00
2022-08-22T03:41:27.506Z,100.00
2022-08-22T03:44:22.392Z,100.00
2022-08-22T03:47:17.664Z,100.00
2022-08-22T03:50:24.478Z,100.00
2022-08-22T03:53:30.556Z,100.00
2022-08-22T03:56:42.709Z,100.00
2022-08-22T03:59:29.181Z,100.00
2022-08-22T04:02:03.654Z,100.00
2022-08-22T04:05:19.216Z,100.00
2022-08-22T04:08:04.539Z,99.60
2022-08-22T04:10:59.299Z,99.61
2022-08-22T04:13:53.356Z,99.27
2022-08-22T04:16:30.436Z,99.10
2022-08-22T04:18:58.569Z,98.93
2022-08-22T04:21:35.692Z,98.48
2022-08-22T04:24:34.330Z,98.45
2022-08-22T04:27:11.106Z,98.32
2022-08-22T04:29:47.010Z,98.54
2022-08-22T04:32:53.564Z,98.57
2022-08-22T04:35:41.659Z,98.84
2022-08-22T04:38:37.273Z,98.89
2022-08-22T04:41:25.663Z,99.32
2022-08-22T04:43:58.930Z,99.46
2022-08-22T04:46:39.596Z,99.56
2022-08-22T04:49:12.280Z,99.39
2022-08-22T04:52:13.214Z,99.24
2022-08-22T04:54:47.024Z,98.65
2022-08-22T04:57:41.782Z,98.16
2022-08-22T05:00:12.595Z,97.43
2022-08-22T05:02:49.733Z,96.80
2022-08-22T05:05:25.895Z,96.17
2022-08-22T05:07:58.996Z,96.02
2022-08-22T05:10:42.734Z,95.96
2022-08-22T05:13:18.879Z,96.51
2022-08-22T05:15:52.105Z,96.78
2022-08-22T05:18:29.955Z,97.06
2022-08-22T05:21:05.419Z,97.16
2022-08-22T05:23:42.640Z,97.15
2022-08-22T05:26:15.638Z,97.27
2022-08-22T05:28:52.900Z,97.37
2022-08-22T05:31:30.507Z,97.54
2022-08-22T05:34:06.419Z,97.80
2022-08-22T05:36:43.210Z,98.36
2022-08-22T05:39:25.321Z,98.58
2022-08-22T05:41:55.923Z,98.60
2022-08-22T05:44:28.300Z,98.50
2022-08-22T05:47:00.693Z,98.48
2022-08-22T05:49:40.819Z,98.28
2022-08-22T05:52:42.635Z,97.95
2022-08-22T05:55:43.499Z,97.96
2022-08-22T05:58:40.059Z,97.71
2022-08-22T06:01:20.745Z,97.51
2022-08-22T06:04:12.041Z,97.35
2022-08-22T06:06:55.902Z,97.29
2022-08-22T06:09:35.454Z,97.59
2022-08-22T06:12:21.649Z,97.52
2022-08-22T06:14:58.698Z,97.31
2022-08-22T06:17:39.262Z,97.43
2022-08-22T06:20:09.891Z,97.40
2022-08-22T06:22:45.409Z,96.81
2022-08-22T06:25:25.163Z,96.15
2022-08-22T06:27:54.917Z,95.84
2022-08-22T06:30:26.648Z,95.52
2022-08-22T06:33:01.617Z,95.21
2022-08-22T06:36:02.465Z,95.11
2022-08-22T06:38:35.738Z,95.08
2022-08-22T06:41:08.831Z,94.98
2022-08-22T06:43:39.690Z,94.81
2022-08-22T06:46:09.237Z,94.36
2022-08-22T06:48:37.946Z,93.93
2022-08-22T06:51:09.050Z,93.63
2022-08-22T06:53:47.817Z,93.31
2022-08-22T06:56:26.714Z,92.92
2022-08-22T06:59:02.973Z,92.72
2022-08-22T07:01:37.872Z,92.70
2022-08-22T07:04:10.125Z,92.78
2022-08-22T07:06:50.435Z,92.72
2022-08-22T07:09:29.674Z,92.63
2022-08-22T07:12:03.048Z,92.60
2022-08-22T07:14:53.759Z,92.66
2022-08-22T07:17:26.138Z,92.67
2022-08-22T07:20:05.209Z,92.55
2022-08-22T07:22:36.761Z,92.17
2022-08-22T07:25:08.392Z,92.19
2022-08-22T07:27:55.072Z,92.39
2022-08-22T07:30:28.142Z,91.79
2022-08-22T07:33:23.606Z,91.38
2022-08-22T07:35:55.980Z,91.14
2022-08-22T07:38:46.742Z,90.98
2022-08-22T07:41:17.269Z,90.46
2022-08-22T07:43:50.616Z,89.97
2022-08-22T07:46:24.827Z,89.50
2022-08-22T07:49:09.241Z,89.46
2022-08-22T07:51:43.479Z,89.10
2022-08-22T07:54:22.095Z,88.26
2022-08-22T07:57:03.463Z,87.54
2022-08-22T07:59:36.139Z,87.14
2022-08-22T08:02:09.465Z,86.89
2022-08-22T08:04:41.968Z,86.79
2022-08-22T08:07:16.926Z,86.58
2022-08-22T08:09:52.398Z,86.59
2022-08-22T08:12:31.536Z,86.73
2022-08-22T08:15:04.280Z,86.44
2022-08-22T08:17:35.552Z,86.47
2022-08-22T08:20:11.990Z,86.22
2022-08-22T08:22:44.056Z,85.23
2022-08-22T08:25:20.447Z,84.74
2022-08-22T08:28:09.896Z,84.15
2022-08-22T08:30:59.621Z,84.35
2022-08-22T08:33:29.455Z,82.74
2022-08-22T08:36:05.544Z,82.42
2022-08-22T08:38:53.579Z,81.57
2022-08-22T08:41:34.964Z,81.03
2022-08-22T08:44:03.448Z,80.64
2022-08-22T08:47:09.241Z,80.22
2022-08-22T08:49:52.221Z,79.35
2022-08-22T08:52:32.013Z,78.79
2022-08-22T08:55:25.059Z,77.97
2022-08-22T08:58:17.665Z,77.46
2022-08-22T09:00:50.467Z,77.71
2022-08-22T09:03:35.513Z,77.13
2022-08-22T09:06:42.489Z,76.70
2022-08-22T09:09:38.168Z,76.30
2022-08-22T09:12:16.217Z,75.89
2022-08-22T09:14:50.124Z,74.98
2022-08-22T09:18:11.646Z,75.13
2022-08-22T09:20:47.688Z,74.34
2022-08-22T09:23:31.906Z,73.61
2022-08-22T09:26:14.611Z,73.68
2022-08-22T09:28:59.250Z,73.04
2022-08-22T09:32:00.117Z,73.00
2022-08-22T09:34:45.084Z,72.91
2022-08-22T09:37:49.960Z,72.40
2022-08-22T09:40:47.219Z,71.55
2022-08-22T09:43:44.190Z,71.74
2022-08-22T09:46:31.644Z,71.75
2022-08-22T09:49:20.045Z,71.19
2022-08-22T09:52:14.375Z,70.32
2022-08-22T09:54:54.882Z,69.85
2022-08-22T09:57:26.965Z,68.97
2022-08-22T10:00:05.642Z,69.01
2022-08-22T10:02:43.665Z,68.29
2022-08-22T10:05:40.981Z,68.52
2022-08-22T10:08:30.612Z,67.29
2022-08-22T10:11:19.637Z,67.60
2022-08-22T10:14:09.953Z,67.35
2022-08-22T10:17:02.603Z,66.91
2022-08-22T10:19:39.488Z,67.14
2022-08-22T10:22:23.326Z,66.85
2022-08-22T10:25:41.657Z,66.51
2022-08-22T10:28:19.403Z,66.31
2022-08-22T10:31:02.291Z,64.89
2022-08-22T10:33:33.173Z,64.96
2022-08-22T10:36:11.944Z,64.76
2022-08-22T10:38:48.342Z,65.43
2022-08-22T10:41:33.274Z,65.15
2022-08-22T10:44:19.839Z,65.74
2022-08-22T10:46:59.116Z,64.94
2022-08-22T10:49:37.917Z,65.17
2022-08-22T10:52:16.045Z,65.58
2022-08-22T10:54:52.722Z,66.15
2022-08-22T10:57:55.083Z,66.28
2022-08-22T11:00:46.475Z,66.43
2022-08-22T11:03:39.772Z,66.75
2022-08-22T11:06:46.603Z,66.72
2022-08-22T11:09:28.272Z,66.99
2022-08-22T11:12:35.290Z,67.03
2022-08-22T11:15:14.243Z,67.41
2022-08-22T11:18:21.800Z,67.31
2022-08-22T11:21:02.927Z,67.58
2022-08-22T11:24:34.640Z,66.97
2022-08-22T11:27:14.830Z,66.58
2022-08-22T11:29:56.930Z,66.53
2022-08-22T11:33:04.705Z,66.58
2022-08-22T11:35:43.198Z,66.68
2022-08-22T11:38:32.574Z,66.53
2022-08-22T11:41:22.101Z,65.86
2022-08-22T11:44:06.003Z,65.13
2022-08-22T11:46:43.664Z,65.07
2022-08-22T11:49:35.861Z,65.16
2022-08-22T11:52:13.148Z,64.62
2022-08-22T11:55:08.075Z,64.66
2022-08-22T11:58:07.040Z,64.44
2022-08-22T12:00:56.594Z,65.38
2022-08-22T12:03:38.782Z,65.38
2022-08-22T12:06:13.337Z,65.48
2022-08-22T12:08:51.927Z,63.92
2022-08-22T12:11:25.610Z,63.15
2022-08-22T12:14:06.638Z,63.03
2022-08-22T12:16:48.372Z,62.83
2022-08-22T12:20:05.595Z,62.40
2022-08-22T12:23:09.052Z,60.97
2022-08-22T12:26:26.065Z,60.56
2022-08-22T12:29:39.618Z,60.76
2022-08-22T12:32:34.022Z,61.09
2022-08-22T12:35:20.207Z,61.00
2022-08-22T12:38:28.968Z,61.60
2022-08-22T12:41:35.033Z,61.61
2022-08-22T12:44:33.389Z,62.08
2022-08-22T12:47:09.794Z,62.20
2022-08-22T12:49:52.876Z,62.14
2022-08-22T12:52:39.645Z,62.34
2022-08-22T12:55:19.980Z,61.94
2022-08-22T12:58:38.962Z,61.84
2022-08-22T13:01:10.720Z,61.86
2022-08-22T13:03:53.690Z,61.34
2022-08-22T13:06:35.751Z,60.68
2022-08-22T13:09:35.868Z,59.25
2022-08-22T13:12:22.984Z,59.78
2022-08-22T13:14:55.668Z,59.47
2022-08-22T13:17:25.885Z,60.37
2022-08-22T13:20:08.919Z,60.07
2022-08-22T13:22:45.617Z,60.23
2022-08-22T13:25:26.480Z,60.27
2022-08-22T13:27:59.222Z,60.39
2022-08-22T13:30:38.017Z,60.70
2022-08-22T13:33:11.376Z,60.47
2022-08-22T13:35:51.894Z,60.56
2022-08-22T13:38:26.899Z,60.49
2022-08-22T13:40:58.238Z,60.67
2022-08-22T13:43:33.987Z,60.64
2022-08-22T13:46:11.030Z,60.61
2022-08-22T13:48:50.699Z,60.75
2022-08-22T13:51:31.659Z,61.37
2022-08-22T13:54:25.705Z,61.00
2022-08-22T13:57:11.798Z,60.88
2022-08-22T13:59:50.828Z,60.79
2022-08-22T14:02:34.340Z,60.80
2022-08-22T14:05:11.377Z,60.70
2022-08-22T14:07:53.468Z,60.37
2022-08-22T14:10:34.160Z,59.91
2022-08-22T14:13:03.022Z,59.31
2022-08-22T14:15:46.075Z,58.55
2022-08-22T14:18:30.319Z,58.69
2022-08-22T14:21:27.726Z,59.28
2022-08-22T14:24:00.716Z,58.76
2022-08-22T14:26:37.260Z,57.49
2022-08-22T14:29:18.670Z,57.08
2022-08-22T14:32:03.503Z,57.10
2022-08-22T14:34:36.317Z,56.99
2022-08-22T14:37:15.132Z,56.98
2022-08-22T14:39:54.643Z,57.27
2022-08-22T14:42:27.390Z,57.72
2022-08-22T14:45:08.526Z,58.04
2022-08-22T14:48:14.069Z,58.20
2022-08-22T14:50:50.437Z,58.78
2022-08-22T14:53:22.241Z,58.41
2022-08-22T14:56:14.989Z,58.78
2022-08-22T14:59:08.460Z,59.11
2022-08-22T15:01:55.633Z,58.98
2022-08-22T15:04:34.655Z,59.08
2022-08-22T15:07:03.340Z,58.94
2022-08-22T15:09:52.135Z,58.44
2022-08-22T15:12:32.285Z,57.94
2022-08-22T15:15:04.519Z,58.28
2022-08-22T15:17:32.657Z,58.56
2022-08-22T15:20:45.414Z,58.93
2022-08-22T15:23:23.606Z,58.25
2022-08-22T15:26:03.592Z,58.12
2022-08-22T15:28:49.793Z,57.99
2022-08-22T15:31:22.363Z,58.36
2022-08-22T15:33:51.669Z,58.91
2022-08-22T15:36:26.783Z,59.49
2022-08-22T15:39:16.914Z,59.74
2022-08-22T15:41:48.688Z,59.84
2022-08-22T15:44:32.255Z,60.51
2022-08-22T15:47:10.859Z,60.67
2022-08-22T15:50:00.034Z,60.69
2022-08-22T15:52:35.993Z,60.47
2022-08-22T15:55:18.051Z,60.12
2022-08-22T15:58:21.428Z,59.67
2022-08-22T16:01:19.215Z,59.52
2022-08-22T16:04:00.121Z,60.00
2022-08-22T16:06:49.231Z,60.24
2022-08-22T16:09:43.544Z,60.68
2022-08-22T16:12:25.672Z,61.01
2022-08-22T16:14:54.022Z,61.20
2022-08-22T16:17:30.928Z,61.40
2022-08-22T16:20:07.896Z,61.85
2022-08-22T16:22:56.765Z,61.62
2022-08-22T16:25:49.510Z,61.64
2022-08-22T16:28:57.733Z,62.16
2022-08-22T16:31:28.901Z,62.75
2022-08-22T16:34:18.958Z,63.18
2022-08-22T16:37:05.659Z,63.60
2022-08-22T16:40:01.905Z,64.20
2022-08-22T16:42:41.130Z,64.68
2022-08-22T16:45:09.050Z,64.93
2022-08-22T16:48:02.250Z,65.34
2022-08-22T16:50:38.347Z,65.64
2022-08-22T16:53:21.532Z,66.04
2022-08-22T16:56:31.528Z,66.04
2022-08-22T16:59:22.893Z,66.35
2022-08-22T17:01:57.265Z,66.51
2022-08-22T17:04:36.375Z,66.52
2022-08-22T17:07:10.820Z,66.70
2022-08-22T17:09:44.698Z,66.94
2022-08-22T17:12:12.745Z,66.98
2022-08-22T17:14:52.894Z,67.08
2022-08-22T17:17:21.718Z,67.23
2022-08-22T17:19:55.470Z,67.47
2022-08-22T17:22:58.479Z,67.80
2022-08-22T17:25:54.578Z,68.07
2022-08-22T17:28:34.339Z,68.10
2022-08-22T17:31:15.395Z,68.45
2022-08-22T17:33:52.717Z,68.63
2022-08-22T17:37:08.360Z,68.89
2022-08-22T17:40:21.840Z,69.13
2022-08-22T17:43:27.174Z,69.42
2022-08-22T17:46:28.978Z,69.70
2022-08-22T17:49:09.500Z,70.03
2022-08-22T17:51:55.182Z,70.47
2022-08-22T17:54:35.847Z,70.67
2022-08-22T17:57:08.673Z,70.86
2022-08-22T17:59:59.944Z,71.19
2022-08-22T18:02:35.186Z,71.24
2022-08-22T18:05:07.968Z,71.45
2022-08-22T18:07:45.257Z,71.66
2022-08-22T18:10:58.180Z,71.94
2022-08-22T18:13:52.967Z,72.01
2022-08-22T18:16:36.064Z,72.23
2022-08-22T18:19:18.229Z,72.30
2022-08-22T18:21:51.954Z,72.52
2022-08-22T18:24:32.630Z,72.59
2022-08-22T18:27:39.090Z,72.93
2022-08-22T18:30:25.851Z,73.07
2022-08-22T18:33:02.120Z,73.30
2022-08-22T18:35:54.518Z,73.40
2022-08-22T18:38:31.523Z,73.71
2022-08-22T18:41:16.297Z,73.83
2022-08-22T18:43:49.152Z,74.05
2022-08-22T18:46:38.716Z,74.26
2022-08-22T18:49:30.065Z,74.49
2022-08-22T18:52:13.913Z,74.80
2022-08-22T18:55:03.736Z,75.00
2022-08-22T18:57:55.852Z,75.46
2022-08-22T19:00:46.356Z,75.68
2022-08-22T19:03:26.566Z,75.95
2022-08-22T19:06:18.900Z,76.29
2022-08-22T19:09:11.034Z,76.51
2022-08-22T19:12:09.827Z,76.64
2022-08-22T19:14:59.921Z,76.69
2022-08-22T19:17:43.138Z,76.85
2022-08-22T19:20:45.089Z,77.08
2022-08-22T19:23:32.018Z,77.07
2022-08-22T19:26:25.027Z,77.28
2022-08-22T19:28:58.154Z,77.34
2022-08-22T19:31:44.461Z,77.48
2022-08-22T19:34:12.528Z,77.49
2022-08-22T19:36:41.158Z,77.39
2022-08-22T19:39:11.330Z,77.67
2022-08-22T19:41:57.042Z,77.55
2022-08-22T19:44:35.627Z,77.62
2022-08-22T19:47:27.055Z,77.58
2022-08-22T19:50:18.002Z,77.51
2022-08-22T19:53:18.695Z,77.29
2022-08-22T19:56:23.161Z,77.42
2022-08-22T19:59:06.893Z,77.49
2022-08-22T20:01:37.990Z,77.37
2022-08-22T20:04:29.721Z,77.42
2022-08-22T20:07:14.682Z,77.38
2022-08-22T20:09:46.030Z,77.35
2022-08-22T20:12:46.398Z,77.31
2022-08-22T20:15:25.282Z,77.42
2022-08-22T20:20:58.493Z,77.31
2022-08-22T20:23:32.269Z,77.22
2022-08-22T20:26:00.829Z,77.25
2022-08-22T20:28:52.445Z,77.19
2022-08-22T20:31:24.911Z,77.14
2022-08-22T20:33:59.088Z,77.14
2022-08-22T20:36:28.099Z,77.08
2022-08-22T20:39:21.340Z,76.93
2022-08-22T20:42:00.779Z,76.98
2022-08-22T20:44:43.161Z,76.97
2022-08-22T20:47:21.305Z,76.98
2022-08-22T20:50:00.829Z,76.98
2022-08-22T20:52:35.618Z,77.01
2022-08-22T20:55:21.341Z,77.08
2022-08-22T20:57:56.245Z,77.10
2022-08-22T21:00:33.930Z,77.31
2022-08-22T21:03:08.047Z,77.41
2022-08-22T21:05:42.571Z,77.59
2022-08-22T21:08:24.866Z,77.51
2022-08-22T21:11:22.571Z,77.69
2022-08-22T21:13:52.281Z,77.73
2022-08-22T21:16:31.628Z,77.83
2022-08-22T21:19:04.115Z,78.08
2022-08-22T21:21:34.637Z,78.37
2022-08-22T21:24:07.864Z,78.52
2022-08-22T21:26:42.124Z,78.75
2022-08-22T21:29:13.472Z,78.90
2022-08-22T21:31:52.942Z,79.03
2022-08-22T21:34:28.247Z,79.03
2022-08-22T21:37:02.061Z,79.16
2022-08-22T21:39:37.830Z,79.43
2022-08-22T21:42:05.819Z,79.66
2022-08-22T21:44:37.121Z,79.85
2022-08-22T21:47:30.714Z,79.97
2022-08-22T21:50:13.954Z,80.22
2022-08-22T21:52:54.066Z,80.51
2022-08-22T21:55:22.136Z,80.60
2022-08-22T21:58:05.263Z,80.91
2022-08-22T22:00:53.267Z,81.30
2022-08-22T22:03:28.302Z,81.67
2022-08-22T22:06:01.932Z,81.74
2022-08-22T22:08:31.490Z,81.85
2022-08-22T22:11:03.500Z,82.12
2022-08-22T22:13:34.339Z,82.39
2022-08-22T22:16:03.150Z,82.52
2022-08-22T22:18:32.897Z,82.66
2022-08-22T22:21:01.340Z,82.96
2022-08-22T22:23:29.953Z,83.13
2022-08-22T22:26:02.886Z,83.31
2022-08-22T22:28:40.124Z,83.42
2022-08-22T22:31:08.810Z,83.58
2022-08-22T22:33:40.424Z,83.67
2022-08-22T22:36:13.488Z,83.94
2022-08-22T22:38:42.072Z,84.03
2022-08-22T22:41:10.703Z,84.27
2022-08-22T22:43:38.990Z,84.41
2022-08-22T22:46:06.985Z,84.57
2022-08-22T22:48:35.024Z,84.83
2022-08-22T22:51:08.988Z,85.09
2022-08-22T22:53:40.217Z,85.32
2022-08-22T22:56:12.913Z,85.44
2022-08-22T22:58:42.351Z,85.83
2022-08-22T23:01:13.175Z,86.06
2022-08-22T23:03:42.505Z,86.51
2022-08-22T23:06:16.767Z,86.68
2022-08-22T23:08:45.019Z,87.27
2022-08-22T23:11:18.423Z,87.73
2022-08-22T23:13:48.504Z,88.47
2022-08-22T23:16:26.335Z,88.66
2022-08-22T23:18:55.695Z,89.33
2022-08-22T23:21:27.941Z,89.78
2022-08-22T23:23:58.052Z,90.32
2022-08-22T23:26:27.065Z,90.52
2022-08-22T23:28:55.604Z,91.18
2022-08-22T23:31:32.655Z,91.58
2022-08-22T23:34:07.415Z,91.86
2022-08-22T23:36:36.641Z,91.77
2022-08-22T23:39:06.323Z,92.06
2022-08-22T23:41:36.500Z,92.40
2022-08-22T23:44:07.190Z,92.56
2022-08-22T23:46:37.301Z,92.87
2022-08-22T23:49:06.568Z,93.12
2022-08-22T23:51:35.120Z,93.17
2022-08-22T23:54:04.364Z,93.37
2022-08-22T23:56:39.020Z,93.86
2022-08-22T23:59:11.726Z,93.96
